Time;durP1;ratioP1;P1;durP2;ratioP2;P2;SDS_P1;SDS_P2;PMS_P1;PMS_P2;Temp;Humidity;BMP_temperature;BMP_pressure;BME280_temperature;BME280_humidity;BME280_pressure;Samples;Min_cycle;Max_cycle;Signal;HPM_P1;HPM_P2
2022/06/02 00:02:22;;;;;;;13.10;9.10;;;9.30;99.90;;;;;;4882192;29;20037;-87
2022/06/02 00:05:06;;;;;;;10.10;8.00;;;9.30;99.90;;;;;;4871743;29;20506;-86
2022/06/02 00:07:37;;;;;;;11.67;8.23;;;9.30;99.90;;;;;;4873546;29;20127;-86
2022/06/02 00:10:12;;;;;;;12.70;7.72;;;9.20;99.90;;;;;;4879991;29;20044;-86
2022/06/02 00:13:02;;;;;;;10.40;8.33;;;9.20;99.90;;;;;;4881559;29;20048;-86
2022/06/02 00:15:42;;;;;;;9.70;8.03;;;9.20;99.90;;;;;;4873385;29;20507;-86
2022/06/02 00:18:43;;;;;;;11.73;8.17;;;9.20;99.90;;;;;;4865960;29;20506;-85
2022/06/02 00:21:21;;;;;;;11.67;8.63;;;9.10;99.90;;;;;;4892216;29;20029;-86
2022/06/02 00:24:28;;;;;;;11.83;9.30;;;9.10;99.90;;;;;;4897210;29;20148;-86
2022/06/02 00:27:09;;;;;;;10.97;8.30;;;9.10;99.90;;;;;;4861947;29;20052;-86
2022/06/02 00:29:48;;;;;;;11.55;8.75;;;9.00;99.90;;;;;;4865542;29;20041;-85
2022/06/02 00:32:33;;;;;;;11.50;8.53;;;9.00;99.90;;;;;;4879303;29;20043;-86
2022/06/02 00:35:10;;;;;;;11.83;7.37;;;9.00;99.90;;;;;;4890295;29;20048;-85
2022/06/02 00:37:39;;;;;;;11.57;9.27;;;9.00;99.90;;;;;;4867013;29;20632;-85
2022/06/02 00:40:08;;;;;;;12.93;10.10;;;8.90;99.90;;;;;;4865202;29;20454;-86
2022/06/02 00:43:05;;;;;;;13.53;9.77;;;9.00;99.90;;;;;;4874075;29;20507;-86
2022/06/02 00:45:31;;;;;;;12.83;9.17;;;9.00;99.90;;;;;;4846702;29;20760;-86
2022/06/02 00:48:19;;;;;;;11.93;9.57;;;8.90;99.90;;;;;;4886838;29;20414;-85
2022/06/02 00:50:57;;;;;;;11.50;9.10;;;9.00;99.90;;;;;;4846500;29;20499;-87
2022/06/02 00:57:30;;;;;;;12.83;8.63;;;9.00;99.90;;;;;;4873305;29;20783;-86
2022/06/02 00:59:56;;;;;;;11.40;8.67;;;8.90;99.90;;;;;;4880530;29;20044;-87
2022/06/02 01:02:23;;;;;;;11.65;9.82;;;8.80;99.90;;;;;;4878791;29;20068;-86
2022/06/02 01:04:49;;;;;;;14.23;9.97;;;8.80;99.90;;;;;;4859440;29;20044;-87
2022/06/02 01:07:46;;;;;;;11.43;9.33;;;8.80;99.90;;;;;;4849273;29;20402;-87
2022/06/02 01:10:30;;;;;;;12.23;9.13;;;8.80;99.90;;;;;;4880996;29;20388;-87
2022/06/02 01:13:05;;;;;;;10.50;8.03;;;8.80;99.90;;;;;;4861952;29;20045;-86
2022/06/02 01:15:43;;;;;;;10.57;8.30;;;8.70;99.90;;;;;;4869985;29;20123;-87
2022/06/02 01:18:27;;;;;;;10.03;8.27;;;8.70;99.90;;;;;;4890791;29;20059;-86
2022/06/02 01:21:01;;;;;;;9.27;8.20;;;8.60;99.90;;;;;;4892300;29;20490;-85
2022/06/02 01:23:33;;;;;;;9.63;8.13;;;8.60;99.90;;;;;;4868095;29;20141;-85
2022/06/02 01:26:18;;;;;;;11.88;8.55;;;8.60;99.90;;;;;;4873479;29;20096;-85
2022/06/02 01:29:02;;;;;;;11.77;9.23;;;8.60;99.90;;;;;;4878427;29;20040;-86
2022/06/02 01:31:49;;;;;;;12.40;8.20;;;8.60;99.90;;;;;;4863934;29;20398;-86
2022/06/02 01:34:17;;;;;;;9.77;7.77;;;8.50;99.90;;;;;;4884680;29;20398;-87
2022/06/02 01:37:05;;;;;;;9.87;7.63;;;8.50;99.90;;;;;;4861567;29;20069;-86
2022/06/02 01:39:49;;;;;;;11.50;8.30;;;8.50;99.90;;;;;;4873277;29;20406;-87
2022/06/02 01:42:41;;;;;;;9.03;6.80;;;8.40;99.90;;;;;;4879503;29;20033;-86
2022/06/02 01:45:49;;;;;;;11.63;7.40;;;8.30;99.90;;;;;;4864940;29;20045;-86
2022/06/02 01:48:29;;;;;;;11.17;7.40;;;8.30;99.90;;;;;;4861491;29;20288;-86
2022/06/02 01:51:16;;;;;;;9.50;7.10;;;8.30;99.90;;;;;;4858260;29;20040;-86
2022/06/02 01:54:10;;;;;;;12.03;6.73;;;8.20;99.90;;;;;;4879370;29;20044;-86
2022/06/02 01:56:55;;;;;;;7.97;6.70;;;8.20;99.90;;;;;;4864246;29;20044;-86
2022/06/02 01:59:51;;;;;;;7.50;6.10;;;8.20;99.90;;;;;;4877894;29;20083;-86
2022/06/02 02:02:35;;;;;;;6.53;5.60;;;8.20;99.90;;;;;;4899076;29;20040;-86
2022/06/02 02:05:28;;;;;;;9.43;6.33;;;8.10;99.90;;;;;;4883556;29;20048;-86
2022/06/02 02:08:09;;;;;;;9.30;6.03;;;8.00;99.90;;;;;;4882896;29;20044;-86
2022/06/02 02:10:38;;;;;;;10.03;6.37;;;8.00;99.90;;;;;;4849292;29;20044;-86
2022/06/02 02:13:54;;;;;;;8.60;6.37;;;8.00;99.90;;;;;;4870010;29;20494;-86
2022/06/02 02:16:34;;;;;;;7.50;5.80;;;7.90;99.90;;;;;;4856635;29;20135;-86
2022/06/02 02:19:18;;;;;;;8.60;5.73;;;7.80;99.90;;;;;;4871577;29;20060;-86
2022/06/02 02:22:06;;;;;;;9.63;6.23;;;7.80;99.90;;;;;;4876868;29;20045;-86
2022/06/02 02:25:01;;;;;;;13.23;6.37;;;7.70;99.90;;;;;;4857938;29;20041;-86
2022/06/02 02:28:02;;;;;;;8.00;6.50;;;7.70;99.90;;;;;;4864536;29;20048;-86
2022/06/02 02:30:44;;;;;;;8.07;6.37;;;7.70;99.90;;;;;;4880838;29;20040;-86
2022/06/02 02:33:31;;;;;;;8.80;7.10;;;7.70;99.90;;;;;;4849003;29;20056;-86
2022/06/02 02:36:26;;;;;;;9.83;7.97;;;7.70;99.90;;;;;;4864356;29;20162;-85
2022/06/02 02:39:26;;;;;;;10.10;7.57;;;7.60;99.90;;;;;;4853038;29;20040;-86
2022/06/02 02:42:13;;;;;;;11.80;8.90;;;7.60;99.90;;;;;;4862914;29;20127;-85
2022/06/02 02:45:08;;;;;;;11.43;8.03;;;7.60;99.90;;;;;;4865997;29;20045;-86
2022/06/02 02:47:50;;;;;;;13.73;9.93;;;7.60;99.90;;;;;;4873329;29;20040;-86
2022/06/02 02:50:34;;;;;;;14.95;10.85;;;7.60;99.90;;;;;;4861899;29;20045;-86
2022/06/02 02:53:16;;;;;;;10.40;7.93;;;7.60;99.90;;;;;;4875315;29;20045;-85
2022/06/02 02:56:18;;;;;;;11.80;9.25;;;7.60;99.90;;;;;;4873063;29;20045;-86
2022/06/02 02:58:44;;;;;;;12.73;9.32;;;7.60;99.90;;;;;;4884052;29;20084;-86
2022/06/02 03:01:17;;;;;;;14.30;10.67;;;7.70;99.90;;;;;;4874643;29;20052;-85
2022/06/02 03:04:02;;;;;;;14.63;10.67;;;7.60;99.90;;;;;;4868050;29;20048;-85
2022/06/02 03:06:32;;;;;;;15.87;11.60;;;7.60;99.90;;;;;;4871680;29;20159;-85
2022/06/02 03:09:12;;;;;;;21.07;15.13;;;7.70;99.90;;;;;;4863556;29;20037;-86
2022/06/02 03:11:57;;;;;;;24.33;15.23;;;7.70;99.90;;;;;;4888588;29;20052;-86
2022/06/02 03:14:43;;;;;;;14.90;11.30;;;7.70;99.90;;;;;;4879753;29;20045;-86
2022/06/02 03:17:19;;;;;;;16.20;11.20;;;7.80;99.90;;;;;;4875075;29;20611;-86
2022/06/02 03:19:48;;;;;;;16.97;12.23;;;7.80;99.90;;;;;;4858300;29;20056;-86
2022/06/02 03:22:26;;;;;;;20.07;14.00;;;7.80;99.90;;;;;;4871319;29;20052;-86
2022/06/02 03:25:01;;;;;;;16.33;12.43;;;7.80;99.90;;;;;;4876109;29;20045;-86
2022/06/02 03:27:41;;;;;;;17.30;12.50;;;7.80;99.90;;;;;;4881058;29;20108;-86
2022/06/02 03:30:23;;;;;;;17.70;12.77;;;7.80;99.90;;;;;;4867780;29;20044;-85
2022/06/02 03:33:18;;;;;;;15.87;11.80;;;7.80;99.90;;;;;;4861418;29;20041;-85
2022/06/02 03:36:09;;;;;;;14.37;11.03;;;7.80;99.90;;;;;;4873233;29;20047;-85
2022/06/02 03:38:57;;;;;;;17.97;11.83;;;7.70;99.90;;;;;;4866258;29;20055;-85
2022/06/02 03:41:51;;;;;;;15.80;11.77;;;7.70;99.90;;;;;;4866690;29;20139;-85
2022/06/02 03:44:27;;;;;;;15.73;10.97;;;7.80;99.90;;;;;;4883321;29;20041;-86
2022/06/02 03:47:23;;;;;;;14.73;10.47;;;7.80;99.90;;;;;;4863505;29;20524;-85
2022/06/02 03:50:33;;;;;;;13.77;9.87;;;7.80;99.90;;;;;;4866004;29;20063;-85
2022/06/02 03:53:43;;;;;;;14.77;11.07;;;7.80;99.90;;;;;;4865886;29;20043;-85
2022/06/02 03:56:28;;;;;;;12.07;9.93;;;7.90;99.90;;;;;;4843708;29;20139;-86
2022/06/02 03:58:56;;;;;;;12.43;9.73;;;7.90;99.90;;;;;;4869744;29;20071;-86
2022/06/02 04:01:27;;;;;;;12.47;10.17;;;7.80;99.90;;;;;;4865418;29;20528;-86
2022/06/02 04:04:27;;;;;;;12.50;10.00;;;7.80;99.90;;;;;;4881150;29;20040;-86
2022/06/02 04:06:59;;;;;;;14.97;10.70;;;7.90;99.90;;;;;;4852034;29;20052;-86
2022/06/02 04:09:29;;;;;;;14.68;10.85;;;7.90;99.90;;;;;;4872809;29;20124;-85
2022/06/02 04:15:11;;;;;;;13.73;9.87;;;7.90;99.90;;;;;;4882849;29;20056;-85
2022/06/02 04:17:49;;;;;;;14.88;10.38;;;7.90;99.90;;;;;;4865029;29;20391;-85
2022/06/02 04:20:36;;;;;;;13.30;10.20;;;7.90;99.90;;;;;;4858868;29;20096;-85
2022/06/02 04:23:26;;;;;;;15.33;11.60;;;7.90;99.90;;;;;;4872340;29;20036;-85
2022/06/02 04:26:16;;;;;;;17.13;10.90;;;8.00;99.90;;;;;;4862496;29;20041;-86
2022/06/02 04:29:01;;;;;;;13.07;9.57;;;8.00;99.90;;;;;;4873873;29;20438;-86
2022/06/02 04:32:07;;;;;;;13.97;9.83;;;8.10;99.90;;;;;;4859616;29;20040;-86
2022/06/02 04:35:15;;;;;;;13.87;10.43;;;8.10;99.90;;;;;;4847406;29;20049;-86
2022/06/02 04:38:06;;;;;;;17.97;11.43;;;8.10;99.90;;;;;;4849553;29;20056;-87
2022/06/02 04:40:44;;;;;;;16.13;10.75;;;8.10;99.90;;;;;;4855909;29;20195;-87
2022/06/02 04:43:22;;;;;;;16.77;10.83;;;8.20;99.90;;;;;;4874665;29;20052;-86
2022/06/02 04:46:23;;;;;;;13.87;10.40;;;8.20;99.90;;;;;;4878511;29;20044;-86
2022/06/02 04:48:55;;;;;;;16.10;11.23;;;8.30;99.90;;;;;;4862571;29;20045;-87
2022/06/02 04:51:37;;;;;;;18.20;12.65;;;8.40;99.90;;;;;;4865491;29;20041;-86
2022/06/02 04:54:28;;;;;;;21.08;12.82;;;8.40;99.90;;;;;;4867065;29;20040;-85
2022/06/02 04:57:02;;;;;;;19.23;13.30;;;8.50;99.90;;;;;;4896037;29;20127;-86
2022/06/02 04:59:39;;;;;;;18.30;12.30;;;8.60;99.90;;;;;;4864695;29;20053;-85
2022/06/02 05:02:33;;;;;;;20.80;13.37;;;8.70;99.90;;;;;;4860829;29;20043;-86
2022/06/02 05:05:30;;;;;;;16.47;13.13;;;8.80;99.90;;;;;;4874542;29;20380;-87
2022/06/02 05:08:06;;;;;;;19.47;13.20;;;8.90;99.90;;;;;;4886945;29;20040;-86
2022/06/02 05:10:41;;;;;;;18.27;13.37;;;9.00;99.90;;;;;;4882452;29;20048;-87
2022/06/02 05:13:12;;;;;;;18.37;13.67;;;9.10;99.90;;;;;;4864407;29;20143;-86
2022/06/02 05:15:56;;;;;;;19.87;13.17;;;9.20;99.90;;;;;;4868223;29;20060;-86
2022/06/02 05:18:52;;;;;;;21.70;13.93;;;9.20;99.90;;;;;;4863216;29;20144;-86
2022/06/02 05:21:31;;;;;;;21.00;12.80;;;9.30;99.90;;;;;;4872803;29;20061;-86
2022/06/02 05:24:32;;;;;;;17.97;13.03;;;9.40;99.90;;;;;;4893261;29;20407;-85
2022/06/02 05:27:22;;;;;;;17.70;12.83;;;9.50;99.90;;;;;;4815527;29;20057;-85
2022/06/02 05:30:08;;;;;;;17.57;12.33;;;9.60;99.90;;;;;;4877737;29;20048;-85
2022/06/02 05:32:58;;;;;;;19.30;11.97;;;9.60;99.90;;;;;;4899668;29;20051;-85
2022/06/02 05:35:59;;;;;;;14.33;11.07;;;9.80;99.90;;;;;;4888305;29;20076;-85
2022/06/02 05:38:52;;;;;;;15.63;11.70;;;9.80;99.90;;;;;;4883373;29;20044;-85
2022/06/02 05:41:21;;;;;;;16.90;11.97;;;10.00;99.90;;;;;;4869609;29;20049;-85
2022/06/02 05:44:02;;;;;;;16.57;12.03;;;10.10;99.90;;;;;;4890767;29;20044;-85
2022/06/02 05:46:45;;;;;;;16.13;12.57;;;10.20;99.90;;;;;;4864448;29;20156;-85
2022/06/02 05:49:20;;;;;;;19.43;12.53;;;10.30;99.90;;;;;;4865268;29;20077;-85
2022/06/02 05:51:55;;;;;;;18.27;12.63;;;10.50;99.90;;;;;;4864816;29;20040;-85
2022/06/02 05:54:36;;;;;;;16.07;11.63;;;10.60;99.90;;;;;;4874102;29;20124;-85
2022/06/02 05:57:02;;;;;;;12.87;11.07;;;10.80;99.90;;;;;;4880982;29;20152;-85
2022/06/02 05:59:27;;;;;;;15.10;10.13;;;10.90;99.90;;;;;;4884066;29;20123;-85
2022/06/02 06:02:34;;;;;;;18.73;12.23;;;11.10;99.90;;;;;;4896760;29;20056;-85
2022/06/02 06:05:28;;;;;;;12.53;9.93;;;11.20;99.90;;;;;;4880962;29;20387;-85
2022/06/02 06:08:14;;;;;;;11.17;9.40;;;11.40;99.90;;;;;;4865248;29;20053;-85
2022/06/02 06:10:42;;;;;;;11.90;8.97;;;11.60;99.90;;;;;;4864933;29;20090;-85
2022/06/02 06:13:27;;;;;;;13.47;9.60;;;11.80;99.90;;;;;;4867784;29;20100;-86
2022/06/02 06:16:27;;;;;;;14.83;9.33;;;12.00;99.90;;;;;;4861977;29;20104;-86
2022/06/02 06:19:09;;;;;;;10.20;7.80;;;12.10;99.90;;;;;;4861138;29;20052;-85
2022/06/02 06:21:56;;;;;;;9.50;7.70;;;12.30;99.90;;;;;;4864377;29;20045;-83
2022/06/02 06:24:24;;;;;;;8.70;7.10;;;12.40;99.90;;;;;;4860587;29;20076;-85
2022/06/02 06:27:27;;;;;;;9.60;7.10;;;12.50;99.90;;;;;;4875605;29;20044;-84
2022/06/02 06:30:14;;;;;;;9.40;7.00;;;12.60;99.90;;;;;;4876101;29;20087;-83
2022/06/02 06:33:13;;;;;;;8.87;6.93;;;12.80;99.90;;;;;;4861999;29;20101;-84
2022/06/02 06:36:07;;;;;;;8.67;7.00;;;12.90;99.90;;;;;;4876353;29;20104;-84
2022/06/02 06:38:41;;;;;;;9.60;7.10;;;13.00;99.90;;;;;;4892141;29;20053;-84
2022/06/02 06:41:13;;;;;;;8.43;6.13;;;13.20;99.90;;;;;;4875447;29;20037;-84
2022/06/02 06:43:57;;;;;;;6.25;5.68;;;13.30;99.90;;;;;;4886666;29;20045;-84
2022/06/02 06:46:27;;;;;;;7.17;5.90;;;13.40;99.90;;;;;;4876782;29;20048;-85
2022/06/02 06:49:09;;;;;;;5.77;5.17;;;13.50;99.90;;;;;;4880284;29;20073;-84
2022/06/02 06:52:17;;;;;;;6.50;5.20;;;13.50;99.90;;;;;;4879665;29;20079;-84
2022/06/02 06:54:52;;;;;;;5.90;4.93;;;13.60;99.90;;;;;;4806420;29;20042;-84
2022/06/02 06:57:45;;;;;;;4.37;3.70;;;13.70;99.90;;;;;;4792300;29;20157;-84
2022/06/02 07:00:24;;;;;;;5.63;3.67;;;13.70;99.90;;;;;;4872942;29;20048;-84
2022/06/02 07:03:14;;;;;;;3.93;3.53;;;13.70;99.90;;;;;;4875316;29;20076;-84
2022/06/02 07:05:48;;;;;;;4.20;3.50;;;13.80;99.90;;;;;;4878863;29;20465;-83
2022/06/02 07:08:38;;;;;;;7.30;3.60;;;13.90;99.90;;;;;;4878429;29;20040;-84
2022/06/02 07:14:49;;;;;;;3.40;3.10;;;14.10;99.90;;;;;;4878704;29;20088;-83
2022/06/02 07:17:28;;;;;;;3.63;3.20;;;14.10;99.90;;;;;;4860947;29;20136;-83
2022/06/02 07:20:17;;;;;;;4.50;2.90;;;14.30;99.90;;;;;;4877629;29;20058;-84
2022/06/02 07:22:49;;;;;;;4.60;2.53;;;14.40;99.90;;;;;;4878078;29;20081;-84
2022/06/02 07:25:23;;;;;;;3.40;2.58;;;14.50;99.90;;;;;;4878647;29;20087;-84
2022/06/02 07:28:09;;;;;;;2.60;2.27;;;14.60;99.90;;;;;;4878115;29;20037;-84
2022/06/02 07:30:45;;;;;;;3.07;2.73;;;14.60;99.90;;;;;;4862820;29;20048;-83
2022/06/02 07:33:47;;;;;;;3.25;2.85;;;14.70;99.90;;;;;;4878664;29;20040;-84
2022/06/02 07:36:45;;;;;;;4.53;2.50;;;14.70;99.90;;;;;;4878733;29;20045;-83
2022/06/02 07:39:34;;;;;;;4.38;2.38;;;14.90;99.90;;;;;;4878178;29;20096;-83
2022/06/02 07:42:25;;;;;;;3.57;2.90;;;14.70;99.90;;;;;;4877242;29;20099;-84
2022/06/02 07:45:12;;;;;;;3.90;2.70;;;14.80;99.90;;;;;;4890649;29;20052;-83
2022/06/02 07:48:02;;;;;;;3.53;2.42;;;15.00;99.90;;;;;;4890629;29;20119;-83
2022/06/02 07:50:34;;;;;;;2.85;2.55;;;15.00;99.90;;;;;;4889505;29;20053;-84
2022/06/02 07:53:17;;;;;;;3.65;2.08;;;14.80;99.90;;;;;;4878123;29;20037;-84
2022/06/02 07:56:06;;;;;;;3.45;2.03;;;14.60;99.90;;;;;;4878185;29;20049;-84
2022/06/02 07:59:10;;;;;;;2.85;2.17;;;14.70;99.90;;;;;;4876635;29;20105;-85
2022/06/02 08:02:15;;;;;;;3.42;2.60;;;14.90;99.90;;;;;;4875525;29;20391;-82
2022/06/02 08:04:54;;;;;;;3.53;2.65;;;15.20;99.90;;;;;;4862690;29;20059;-86
2022/06/02 08:07:27;;;;;;;2.78;2.28;;;15.50;99.90;;;;;;4874361;29;20048;-85
2022/06/02 08:09:58;;;;;;;3.38;2.47;;;15.60;99.90;;;;;;4878557;29;20474;-86
2022/06/02 08:12:42;;;;;;;3.00;2.30;;;15.60;99.90;;;;;;4862580;29;20538;-83
2022/06/02 08:15:25;;;;;;;2.65;2.30;;;15.50;99.90;;;;;;4894731;29;20474;-85
2022/06/02 08:18:16;;;;;;;6.15;2.42;;;15.30;99.90;;;;;;4904239;29;20048;-84
2022/06/02 08:21:20;;;;;;;3.92;2.63;;;15.10;99.90;;;;;;4906198;29;20057;-84
2022/06/02 08:24:07;;;;;;;2.92;2.63;;;15.00;99.90;;;;;;4886514;29;20074;-84
2022/06/02 08:26:51;;;;;;;3.08;2.78;;;14.90;99.90;;;;;;4888321;29;20036;-84
2022/06/02 08:29:57;;;;;;;2.53;2.33;;;14.80;99.90;;;;;;4878872;29;20041;-84
2022/06/02 08:32:34;;;;;;;2.78;2.40;;;14.70;99.90;;;;;;4861979;29;20042;-84
2022/06/02 08:35:07;;;;;;;3.90;2.55;;;14.70;99.90;;;;;;4878049;29;20093;-84
2022/06/02 08:37:42;;;;;;;3.13;2.70;;;14.80;99.90;;;;;;4862264;29;20572;-84
2022/06/02 08:40:35;;;;;;;3.63;2.30;;;14.80;99.90;;;;;;4862956;29;20052;-84
2022/06/02 08:43:12;;;;;;;3.05;2.00;;;14.80;99.90;;;;;;4876279;29;20049;-84
2022/06/02 08:45:41;;;;;;;3.03;2.30;;;14.70;99.90;;;;;;4872861;29;20096;-83
2022/06/02 08:48:24;;;;;;;3.63;2.60;;;14.60;99.90;;;;;;4861872;29;20040;-83
2022/06/02 08:51:15;;;;;;;5.45;2.70;;;14.70;99.90;;;;;;4874820;29;20402;-83
2022/06/02 08:53:59;;;;;;;3.67;2.17;;;15.10;99.90;;;;;;4875593;29;20045;-84
2022/06/02 08:56:40;;;;;;;2.30;2.08;;;15.50;99.90;;;;;;4872473;29;20525;-84
2022/06/02 08:59:24;;;;;;;2.65;2.45;;;15.90;99.90;;;;;;4877310;29;20651;-84
2022/06/02 09:02:19;;;;;;;3.10;2.50;;;16.10;99.90;;;;;;4876509;29;20136;-84
2022/06/02 09:05:06;;;;;;;4.82;2.80;;;16.30;99.90;;;;;;4877586;29;20055;-82
2022/06/02 09:07:44;;;;;;;2.40;2.20;;;16.30;99.90;;;;;;4878056;29;20040;-84
2022/06/02 09:10:25;;;;;;;2.22;2.03;;;16.10;99.90;;;;;;4873126;29;20037;-82
2022/06/02 09:13:15;;;;;;;2.92;2.00;;;15.80;99.90;;;;;;4891591;29;20053;-83
2022/06/02 09:16:19;;;;;;;2.40;2.10;;;16.00;99.90;;;;;;4879481;29;20094;-84
2022/06/02 09:19:10;;;;;;;2.92;2.00;;;16.40;99.90;;;;;;4849136;29;20056;-85
2022/06/02 09:21:39;;;;;;;3.75;2.20;;;16.80;99.90;;;;;;4870028;29;20041;-84
2022/06/02 09:24:23;;;;;;;4.32;2.30;;;16.90;99.90;;;;;;4874490;29;20499;-83
2022/06/02 09:27:04;;;;;;;2.47;2.28;;;16.80;99.90;;;;;;4860722;29;20088;-84
2022/06/02 09:29:45;;;;;;;2.65;2.30;;;16.60;99.90;;;;;;4887991;29;20056;-84
2022/06/02 09:32:29;;;;;;;2.40;2.20;;;16.20;99.90;;;;;;4872149;29;20051;-84
2022/06/02 09:35:34;;;;;;;3.08;2.40;;;16.00;99.90;;;;;;4870188;29;20289;-84
2022/06/02 09:38:10;;;;;;;3.20;2.25;;;15.90;99.90;;;;;;4857910;29;20517;-84
2022/06/02 09:40:46;;;;;;;1.92;1.83;;;16.10;99.90;;;;;;4857641;29;20049;-85
2022/06/02 09:43:31;;;;;;;3.50;2.22;;;16.40;99.90;;;;;;4870517;29;20051;-84
2022/06/02 09:46:34;;;;;;;3.00;2.17;;;16.90;99.90;;;;;;4858084;29;20514;-85
2022/06/02 09:49:42;;;;;;;3.53;2.00;;;17.30;99.90;;;;;;4869459;29;20041;-85
2022/06/02 09:52:43;;;;;;;3.40;2.13;;;17.60;99.90;;;;;;4887712;29;20051;-84
2022/06/02 09:55:50;;;;;;;3.10;1.75;;;17.50;99.90;;;;;;4856371;29;20077;-85
2022/06/02 09:58:53;;;;;;;3.63;2.58;;;17.30;99.90;;;;;;4857269;29;20052;-85
2022/06/02 10:01:41;;;;;;;4.72;2.58;;;17.00;99.90;;;;;;4872911;29;20127;-84
2022/06/02 10:04:32;;;;;;;5.13;2.42;;;16.90;99.90;;;;;;4848541;29;20113;-85
2022/06/02 10:07:21;;;;;;;2.60;2.17;;;17.20;99.90;;;;;;4859908;29;20036;-83
2022/06/02 10:10:21;;;;;;;2.90;2.30;;;17.40;99.90;;;;;;4868788;29;20037;-84
2022/06/02 10:13:11;;;;;;;2.28;2.10;;;17.80;99.90;;;;;;4869419;29;20049;-84
2022/06/02 10:16:10;;;;;;;3.03;1.80;;;18.10;99.90;;;;;;4858453;29;20057;-84
2022/06/02 10:19:08;;;;;;;3.60;2.08;;;18.40;99.90;;;;;;4873279;29;20063;-84
2022/06/02 10:22:05;;;;;;;2.38;2.17;;;18.40;99.90;;;;;;4860386;29;20152;-84
2022/06/02 10:24:48;;;;;;;4.30;2.25;;;18.10;99.90;;;;;;4863619;29;20379;-84
2022/06/02 10:27:51;;;;;;;3.85;2.10;;;17.60;99.90;;;;;;4879915;29;20120;-84
2022/06/02 10:30:39;;;;;;;3.00;1.90;;;17.30;99.90;;;;;;4873354;29;20052;-85
2022/06/02 10:33:41;;;;;;;1.67;1.58;;;17.30;99.90;;;;;;4865524;29;20045;-85
2022/06/02 10:36:31;;;;;;;2.80;1.60;;;17.60;99.90;;;;;;4866121;29;20388;-85
2022/06/02 10:39:21;;;;;;;1.75;1.65;;;17.80;99.90;;;;;;4885688;29;20568;-85
2022/06/02 10:42:20;;;;;;;1.75;1.65;;;18.00;99.90;;;;;;4862447;29;20048;-84
2022/06/02 10:45:14;;;;;;;3.60;1.92;;;18.30;99.90;;;;;;4851954;29;20492;-84
2022/06/02 10:48:07;;;;;;;2.95;1.90;;;18.20;99.90;;;;;;4860995;29;20875;-84
2022/06/02 10:51:16;;;;;;;4.85;2.35;;;18.20;99.90;;;;;;4861177;29;20049;-85
2022/06/02 10:54:08;;;;;;;3.20;1.80;;;18.40;99.90;;;;;;4851412;29;20057;-84
2022/06/02 10:57:15;;;;;;;2.58;2.03;;;18.30;99.90;;;;;;4882959;29;20064;-83
2022/06/02 11:00:19;;;;;;;1.83;1.60;;;18.30;99.90;;;;;;4886049;29;20134;-84
2022/06/02 11:03:22;;;;;;;1.85;1.63;;;18.40;99.90;;;;;;4896364;29;20120;-85
2022/06/02 11:06:15;;;;;;;4.18;1.90;;;18.70;99.90;;;;;;4861264;29;20514;-84
2022/06/02 11:09:18;;;;;;;2.25;1.60;;;19.00;99.90;;;;;;4860807;29;20093;-84
2022/06/02 11:12:17;;;;;;;3.25;1.92;;;19.30;99.90;;;;;;4880068;29;20056;-85
2022/06/02 11:15:04;;;;;;;1.70;1.60;;;19.70;99.90;;;;;;4863227;29;20599;-84
2022/06/02 11:17:50;;;;;;;1.95;1.65;;;20.00;99.90;;;;;;4866885;29;20168;-83
2022/06/02 11:20:29;;;;;;;2.55;1.40;;;20.20;99.90;;;;;;4897450;29;20119;-83
2022/06/02 11:23:25;;;;;;;2.15;1.42;;;20.00;99.90;;;;;;4882550;29;20052;-84
2022/06/02 11:25:56;;;;;;;1.60;1.45;;;19.70;99.90;;;;;;4884248;29;20076;-85
2022/06/02 11:28:56;;;;;;;1.50;1.40;;;19.80;99.90;;;;;;4875776;29;20080;-85
2022/06/02 11:31:43;;;;;;;1.88;1.50;;;20.10;99.90;;;;;;4881720;29;20111;-84
2022/06/02 11:34:34;;;;;;;1.98;1.88;;;19.90;99.90;;;;;;4889506;29;20053;-84
2022/06/02 11:37:25;;;;;;;1.55;1.45;;;20.00;99.90;;;;;;4867319;29;20092;-85
2022/06/02 11:40:21;;;;;;;3.33;1.70;;;20.30;99.90;;;;;;4874967;29;20131;-85
2022/06/02 11:43:12;;;;;;;1.77;1.42;;;20.40;99.90;;;;;;4863539;29;20053;-85
2022/06/02 11:45:56;;;;;;;3.20;1.50;;;20.50;99.90;;;;;;4850379;29;20041;-84
2022/06/02 11:48:37;;;;;;;2.03;1.67;;;20.40;99.90;;;;;;4890600;29;20044;-84
2022/06/02 11:51:28;;;;;;;2.88;1.70;;;20.10;99.90;;;;;;4847656;29;20065;-83
2022/06/02 11:54:11;;;;;;;2.22;2.00;;;19.40;99.90;;;;;;4847745;29;20052;-85
2022/06/02 11:57:12;;;;;;;1.60;1.50;;;19.40;99.90;;;;;;4869758;29;20041;-84
2022/06/02 12:00:03;;;;;;;1.58;1.48;;;19.40;99.90;;;;;;4851254;29;20295;-84
2022/06/02 12:03:01;;;;;;;1.35;1.25;;;19.70;99.90;;;;;;4877202;29;20043;-84
2022/06/02 12:06:06;;;;;;;1.95;1.70;;;20.10;99.90;;;;;;4874399;29;20044;-82
2022/06/02 12:08:50;;;;;;;2.55;1.35;;;20.00;99.90;;;;;;4840259;29;20149;-82
2022/06/02 12:11:47;;;;;;;1.90;1.50;;;20.00;99.90;;;;;;4891315;29;20047;-82
2022/06/02 12:14:49;;;;;;;1.67;1.58;;;19.90;99.90;;;;;;4865014;29;20048;-83
2022/06/02 12:17:15;;;;;;;;;;;20.00;99.90;;;;;;4884026;29;20076;-82
2022/06/02 12:20:02;;;;;;;3.05;1.25;;;20.10;99.90;;;;;;4886320;29;19989;-85
2022/06/02 12:23:09;;;;;;;2.00;1.50;;;20.20;99.90;;;;;;4873279;29;20096;-82
2022/06/02 12:25:40;;;;;;;4.55;1.92;;;20.30;99.90;;;;;;4894280;29;20059;-82
2022/06/02 12:28:18;;;;;;;2.70;1.65;;;20.10;99.90;;;;;;4873551;29;20048;-83
2022/06/02 12:31:17;;;;;;;1.73;1.63;;;19.60;99.90;;;;;;4871570;29;20538;-83
2022/06/02 12:34:17;;;;;;;2.05;1.58;;;19.00;99.90;;;;;;4860815;29;20073;-84
2022/06/02 12:36:52;;;;;;;2.22;1.70;;;18.90;99.90;;;;;;4869522;29;20405;-84
2022/06/02 12:39:23;;;;;;;3.42;1.83;;;19.20;99.90;;;;;;4883589;29;20145;-84
2022/06/02 12:42:34;;;;;;;3.80;1.85;;;19.60;99.90;;;;;;4894294;29;20067;-83
2022/06/02 12:45:31;;;;;;;1.83;1.65;;;20.10;99.90;;;;;;4876086;29;20068;-83
2022/06/02 12:48:21;;;;;;;1.90;1.60;;;20.40;99.90;;;;;;4888801;29;20736;-84
2022/06/02 12:51:22;;;;;;;1.52;1.42;;;20.80;99.90;;;;;;4876353;29;20048;-86
2022/06/02 12:54:00;;;;;;;2.17;1.75;;;21.10;96.20;;;;;;4830638;29;20058;-84
2022/06/02 12:56:29;;;;;;;2.30;1.50;;;21.20;99.90;;;;;;4864284;29;20490;-84
2022/06/02 12:59:28;;;;;;;2.15;1.40;;;21.00;99.90;;;;;;4876392;29;20049;-84
2022/06/02 13:02:29;;;;;;;1.70;1.60;;;20.60;99.90;;;;;;4911630;29;20662;-82
2022/06/02 13:05:07;;;;;;;5.03;2.33;;;19.90;99.90;;;;;;4846829;29;20044;-82
2022/06/02 13:08:03;;;;;;;1.90;1.70;;;19.40;99.90;;;;;;4891951;29;20490;-83
2022/06/02 13:10:44;;;;;;;3.83;1.80;;;19.40;99.90;;;;;;4893009;29;20071;-83
2022/06/02 13:13:35;;;;;;;2.53;1.92;;;19.60;99.90;;;;;;4888546;29;20077;-82
2022/06/02 13:16:17;;;;;;;1.80;1.70;;;19.50;99.90;;;;;;4863105;29;20041;-82
2022/06/02 13:19:20;;;;;;;4.50;1.92;;;19.40;99.90;;;;;;4889835;29;20510;-82
2022/06/02 13:21:52;;;;;;;3.50;1.60;;;19.30;99.90;;;;;;4873350;29;20116;-83
2022/06/02 13:24:32;;;;;;;1.65;1.55;;;19.00;99.90;;;;;;4867868;29;20104;-82
2022/06/02 13:27:25;;;;;;;5.97;1.55;;;18.80;99.90;;;;;;4872947;29;20057;-82
2022/06/02 13:30:11;;;;;;;5.00;1.95;;;18.50;99.90;;;;;;4864591;29;20067;-81
2022/06/02 13:32:36;;;;;;;2.28;1.75;;;18.20;99.90;;;;;;4879199;29;20051;-81
2022/06/02 13:35:29;;;;;;;2.40;1.80;;;18.00;99.90;;;;;;4896119;29;20036;-82
2022/06/02 13:38:18;;;;;;;1.90;1.70;;;17.90;99.90;;;;;;4874087;29;20210;-83
2022/06/02 13:41:10;;;;;;;2.75;1.35;;;17.80;99.90;;;;;;4882286;29;20036;-83
2022/06/02 13:44:07;;;;;;;1.98;1.88;;;17.80;99.90;;;;;;4874865;29;20151;-81
2022/06/02 13:47:01;;;;;;;2.47;1.75;;;17.90;99.90;;;;;;4871033;29;20060;-82
2022/06/02 13:49:48;;;;;;;2.75;2.03;;;17.80;99.90;;;;;;4897101;29;20044;-82
2022/06/02 13:52:51;;;;;;;1.83;1.73;;;17.80;99.90;;;;;;4852952;29;20076;-81
2022/06/02 13:58:50;;;;;;;2.10;1.77;;;18.20;99.90;;;;;;4887000;29;20462;-83
2022/06/02 14:01:54;;;;;;;2.15;1.90;;;17.90;99.90;;;;;;4883107;29;20364;-81
2022/06/02 14:04:28;;;;;;;2.92;1.92;;;17.80;99.90;;;;;;4876318;29;20041;-83
2022/06/02 14:07:32;;;;;;;2.42;2.22;;;17.70;99.90;;;;;;4870358;29;20045;-83
2022/06/02 14:10:22;;;;;;;2.30;2.10;;;17.60;99.90;;;;;;4890044;29;20537;-83
2022/06/02 14:12:56;;;;;;;2.35;2.00;;;17.60;99.90;;;;;;4849382;29;20064;-83
2022/06/02 14:15:31;;;;;;;1.85;1.70;;;17.60;99.90;;;;;;4849412;29;20123;-82
2022/06/02 14:18:16;;;;;;;2.38;1.85;;;17.60;99.90;;;;;;4864468;29;20056;-82
2022/06/02 14:20:59;;;;;;;2.03;1.80;;;17.60;99.90;;;;;;4870230;29;20048;-83
2022/06/02 14:24:03;;;;;;;2.95;1.80;;;17.60;99.90;;;;;;4885401;29;20044;-83
2022/06/02 14:26:41;;;;;;;3.38;1.98;;;17.70;99.90;;;;;;4879586;29;20056;-82
2022/06/02 14:29:16;;;;;;;2.78;2.00;;;17.70;99.90;;;;;;4883096;29;20536;-83
2022/06/02 14:32:05;;;;;;;3.45;1.90;;;18.00;99.90;;;;;;4882807;29;20200;-83
2022/06/02 14:34:39;;;;;;;2.67;1.77;;;18.20;99.90;;;;;;4882618;29;20135;-83
2022/06/02 14:37:20;;;;;;;3.22;2.25;;;18.50;99.90;;;;;;4890209;29;20049;-83
2022/06/02 14:39:51;;;;;;;3.70;2.25;;;19.00;99.90;;;;;;4898648;29;20074;-82